createdAt,value
2023-04-16T04:03:32.825Z,9.12
2023-04-16T04:07:35.631Z,9.09
2023-04-16T04:11:38.770Z,9.18
2023-04-16T04:15:41.390Z,9.09
2023-04-16T04:20:00.007Z,9.17
2023-04-16T04:24:03.714Z,8.89
2023-04-16T04:28:08.163Z,8.85
2023-04-16T04:32:10.779Z,8.89
2023-04-16T04:36:14.901Z,8.85
2023-04-16T04:40:18.152Z,8.87
2023-04-16T04:44:21.810Z,8.87
2023-04-16T04:48:26.586Z,8.86
2023-04-16T04:52:31.590Z,8.89
2023-04-16T04:56:34.338Z,8.85
2023-04-16T05:00:37.353Z,8.69
2023-04-16T05:04:40.000Z,8.78
2023-04-16T05:08:43.980Z,8.61
2023-04-16T05:12:48.824Z,8.80
2023-04-16T05:16:51.607Z,8.75
2023-04-16T05:20:54.196Z,8.71
2023-04-16T05:24:58.022Z,8.73
2023-04-16T05:29:00.765Z,8.85
2023-04-16T05:33:04.401Z,8.90
2023-04-16T05:37:06.998Z,8.92
2023-04-16T05:41:10.842Z,8.78
2023-04-16T05:45:13.442Z,8.73
2023-04-16T05:49:16.036Z,8.60
2023-04-16T05:53:19.251Z,8.76
2023-04-16T05:57:23.121Z,8.80
2023-04-16T06:01:26.267Z,8.77
2023-04-16T06:05:28.964Z,8.71
2023-04-16T06:09:31.549Z,8.67
2023-04-16T06:13:35.396Z,8.55
2023-04-16T06:17:37.987Z,8.51
2023-04-16T06:21:40.705Z,8.54
2023-04-16T06:25:43.214Z,8.63
2023-04-16T06:29:47.053Z,8.65
2023-04-16T06:33:49.593Z,8.92
2023-04-16T06:37:52.243Z,8.93
2023-04-16T06:41:54.828Z,8.79
2023-04-16T06:45:58.657Z,8.74
2023-04-16T06:50:01.127Z,8.81
2023-04-16T06:54:03.640Z,8.71
2023-04-16T06:58:06.154Z,8.72
2023-04-16T07:02:11.255Z,8.62
2023-04-16T07:06:13.803Z,8.69
2023-04-16T07:10:16.456Z,8.54
2023-04-16T07:14:19.024Z,8.54
2023-04-16T07:18:22.980Z,8.65
2023-04-16T07:22:25.498Z,8.76
2023-04-16T07:26:28.000Z,8.56
2023-04-16T07:30:34.167Z,8.64
2023-04-16T07:34:38.190Z,8.75
2023-04-16T07:38:40.747Z,8.86
2023-04-16T07:42:44.083Z,8.71
2023-04-16T07:46:47.708Z,8.73
2023-04-16T07:50:51.789Z,8.60
2023-04-16T07:54:54.298Z,8.68
2023-04-16T07:58:59.454Z,8.72
2023-04-16T08:03:05.975Z,8.64
2023-04-16T08:07:10.241Z,8.67
2023-04-16T08:11:12.805Z,8.90
2023-04-16T08:15:15.345Z,8.94
2023-04-16T08:19:17.984Z,9.03
2023-04-16T08:23:21.842Z,9.01
2023-04-16T08:27:24.340Z,8.96
2023-04-16T08:31:26.994Z,8.93
2023-04-16T08:35:29.487Z,9.10
2023-04-16T08:39:33.577Z,8.93
2023-04-16T08:43:39.178Z,8.96
2023-04-16T08:47:42.813Z,8.80
2023-04-16T08:51:50.555Z,8.93
2023-04-16T08:55:58.446Z,9.00
2023-04-16T09:00:01.665Z,9.17
2023-04-16T09:04:05.790Z,9.16
2023-04-16T09:08:08.720Z,9.17
2023-04-16T09:12:12.958Z,9.33
2023-04-16T09:16:15.923Z,9.37
2023-04-16T09:20:18.505Z,9.47
2023-04-16T09:24:22.850Z,9.38
2023-04-16T09:28:43.332Z,9.40
2023-04-16T09:32:45.929Z,9.39
2023-04-16T09:36:48.493Z,9.27
2023-04-16T09:41:07.460Z,9.24
2023-04-16T09:45:12.485Z,9.23
2023-04-16T09:49:16.618Z,9.22
2023-04-16T09:53:25.622Z,9.15
2023-04-16T09:57:28.177Z,9.15
2023-04-16T10:01:32.961Z,9.22
2023-04-16T10:05:35.735Z,9.24
2023-04-16T10:09:39.190Z,9.28
2023-04-16T10:13:41.592Z,9.16
2023-04-16T10:17:46.494Z,9.18
2023-04-16T10:21:49.245Z,9.23
2023-04-16T10:25:54.143Z,9.15
2023-04-16T10:29:58.448Z,9.26
2023-04-16T10:34:03.353Z,9.22
2023-04-16T10:38:24.209Z,9.17
2023-04-16T10:42:27.504Z,9.07
2023-04-16T10:46:33.820Z,9.14
2023-04-16T10:50:38.587Z,9.24
2023-04-16T10:54:41.790Z,9.20
2023-04-16T10:58:44.318Z,9.28
2023-04-16T11:02:47.045Z,9.19
2023-04-16T11:07:06.873Z,9.19
2023-04-16T11:11:09.498Z,9.33
2023-04-16T11:15:13.601Z,9.25
2023-04-16T11:19:18.263Z,9.25
2023-04-16T11:23:22.192Z,9.39
2023-04-16T11:27:25.488Z,9.26
2023-04-16T11:31:28.275Z,9.30
2023-04-16T11:35:31.116Z,9.28
2023-04-16T11:39:35.006Z,9.49
2023-04-16T11:43:37.645Z,9.35
2023-04-16T11:47:45.547Z,9.49
2023-04-16T11:51:48.550Z,9.42
2023-04-16T11:55:52.488Z,9.42
2023-04-16T12:00:02.047Z,9.41
2023-04-16T12:04:16.436Z,9.50
2023-04-16T12:08:31.642Z,9.53
2023-04-16T12:12:35.799Z,9.51
2023-04-16T12:16:38.414Z,9.91
2023-04-16T12:20:42.500Z,10.08
2023-04-16T12:24:45.065Z,10.01
2023-04-16T12:28:48.961Z,10.25
2023-04-16T12:32:52.829Z,10.10
2023-04-16T12:37:07.183Z,10.44
2023-04-16T12:41:09.670Z,10.63
2023-04-16T12:45:13.513Z,10.38
2023-04-16T12:49:16.087Z,10.20
2023-04-16T12:53:18.633Z,10.38
2023-04-16T12:57:21.153Z,10.02
2023-04-16T13:01:25.044Z,10.04
2023-04-16T13:05:27.642Z,10.10
2023-04-16T13:09:30.272Z,10.12
2023-04-16T13:13:33.050Z,10.33
2023-04-16T13:17:37.056Z,10.21
2023-04-16T13:21:40.484Z,10.22
2023-04-16T13:25:43.005Z,10.51
2023-04-16T13:29:45.716Z,10.51
2023-04-16T13:33:49.770Z,10.31
2023-04-16T13:37:52.316Z,10.16
2023-04-16T13:41:54.857Z,10.07
2023-04-16T13:45:57.396Z,10.36
2023-04-16T13:50:01.443Z,10.36
2023-04-16T13:54:04.109Z,10.38
2023-04-16T13:58:07.121Z,10.19
2023-04-16T14:02:11.238Z,10.28
2023-04-16T14:06:17.901Z,10.52
2023-04-16T14:10:20.959Z,10.44
2023-04-16T14:14:23.526Z,10.55
2023-04-16T14:18:26.126Z,10.48
2023-04-16T14:22:30.022Z,10.47
2023-04-16T14:26:32.572Z,10.51
2023-04-16T14:30:35.353Z,10.34
2023-04-16T14:34:37.926Z,10.75
2023-04-16T14:38:43.216Z,10.68
2023-04-16T14:42:45.800Z,10.72
2023-04-16T14:46:48.329Z,10.82
2023-04-16T14:50:51.113Z,10.44
2023-04-16T14:54:55.801Z,10.38
2023-04-16T14:58:58.377Z,10.49
2023-04-16T15:03:01.019Z,10.29
2023-04-16T15:07:03.678Z,10.43
2023-04-16T15:11:07.531Z,10.52
2023-04-16T15:15:11.264Z,10.51
2023-04-16T15:19:13.943Z,10.51
2023-04-16T15:23:17.079Z,10.27
2023-04-16T15:27:21.093Z,10.33
2023-04-16T15:31:23.834Z,10.42
2023-04-16T15:35:26.412Z,10.42
2023-04-16T15:39:28.993Z,10.63
2023-04-16T15:43:32.858Z,10.86
2023-04-16T15:47:37.157Z,10.86
2023-04-16T15:51:40.621Z,10.96
2023-04-16T15:55:43.548Z,10.86
2023-04-16T15:59:59.530Z,11.27
2023-04-16T16:04:07.918Z,11.45
2023-04-16T16:08:10.635Z,11.31
2023-04-16T16:12:13.170Z,11.27
2023-04-16T16:16:17.062Z,10.98
2023-04-16T16:20:19.585Z,10.82
2023-04-16T16:24:22.196Z,10.85
2023-04-16T16:28:25.149Z,10.85
2023-04-16T16:32:29.073Z,10.75
2023-04-16T16:36:32.361Z,10.73
2023-04-16T16:40:34.942Z,10.70
2023-04-16T16:44:37.648Z,10.74
2023-04-16T16:48:41.484Z,10.71
2023-04-16T16:52:45.283Z,10.72
2023-04-16T16:56:47.796Z,10.89
2023-04-16T17:00:50.282Z,10.92
2023-04-16T17:04:54.860Z,10.95
2023-04-16T17:08:57.671Z,10.93
2023-04-16T17:13:00.167Z,10.94
2023-04-16T17:17:02.750Z,10.74
2023-04-16T17:21:06.638Z,10.71
2023-04-16T17:25:09.678Z,10.75
2023-04-16T17:29:12.216Z,10.79
2023-04-16T17:33:14.800Z,10.81
2023-04-16T17:37:18.751Z,10.78
2023-04-16T17:41:21.352Z,10.77
2023-04-16T17:45:23.886Z,10.68
2023-04-16T17:49:26.402Z,10.65
2023-04-16T17:53:30.259Z,10.67
2023-04-16T17:57:32.924Z,10.64
2023-04-16T18:01:35.568Z,10.49
2023-04-16T18:05:38.121Z,10.50
2023-04-16T18:09:42.063Z,10.49
2023-04-16T18:13:44.692Z,10.54
2023-04-16T18:17:47.268Z,10.55
2023-04-16T18:21:49.812Z,10.43
2023-04-16T18:25:53.669Z,10.52
2023-04-16T18:29:56.177Z,10.46
2023-04-16T18:33:58.842Z,10.53
2023-04-16T18:38:02.128Z,10.64
2023-04-16T18:42:06.338Z,10.76
2023-04-16T18:46:08.913Z,10.80
2023-04-16T18:50:11.726Z,10.87
2023-04-16T18:54:14.267Z,10.89
2023-04-16T18:58:18.112Z,10.88
2023-04-16T19:02:20.736Z,10.94
2023-04-16T19:06:23.376Z,10.85
2023-04-16T19:10:26.158Z,10.73
2023-04-16T19:14:29.985Z,10.78
2023-04-16T19:18:32.642Z,10.73
2023-04-16T19:22:35.465Z,10.73
2023-04-16T19:26:37.966Z,10.82
2023-04-16T19:30:41.874Z,10.86
2023-04-16T19:34:44.560Z,10.90
2023-04-16T19:38:47.081Z,10.94
2023-04-16T19:42:49.578Z,10.87
2023-04-16T19:46:53.398Z,10.96
2023-04-16T19:50:55.982Z,10.98
2023-04-16T19:54:58.508Z,11.05
2023-04-16T19:59:02.005Z,10.85
2023-04-16T20:03:06.296Z,10.83
2023-04-16T20:07:08.940Z,10.78
2023-04-16T20:11:12.082Z,10.72
2023-04-16T20:15:14.682Z,10.66
2023-04-16T20:19:19.492Z,10.69
2023-04-16T20:23:22.101Z,10.68
2023-04-16T20:27:24.683Z,10.83
2023-04-16T20:31:27.310Z,10.83
2023-04-16T20:35:31.270Z,10.88
2023-04-16T20:39:34.300Z,10.83
2023-04-16T20:43:40.593Z,10.70
2023-04-16T20:47:44.291Z,10.62
2023-04-16T20:51:48.192Z,10.65
2023-04-16T20:55:50.740Z,10.65
2023-04-16T20:59:53.266Z,10.60
